createdAt,value
2017-12-12T00:00:02.378Z,23.83
2017-12-12T00:02:30.884Z,26.83
2017-12-12T00:04:59.259Z,24.07
2017-12-12T00:07:27.646Z,26.97
2017-12-12T00:09:56.017Z,25.00
2017-12-12T00:12:24.403Z,25.43
2017-12-12T00:14:52.806Z,24.50
2017-12-12T00:17:21.950Z,22.97
2017-12-12T00:19:50.360Z,24.10
2017-12-12T00:22:39.703Z,25.27
2017-12-12T00:25:08.079Z,23.70
2017-12-12T00:27:36.452Z,22.87
2017-12-12T00:30:04.808Z,24.33
2017-12-12T00:32:33.223Z,22.17
2017-12-12T00:35:01.611Z,24.17
2017-12-12T00:37:29.986Z,24.60
2017-12-12T00:39:58.370Z,22.37
2017-12-12T00:42:26.740Z,23.63
2017-12-12T00:44:55.124Z,22.40
2017-12-12T00:47:23.501Z,22.27
2017-12-12T00:49:51.891Z,21.57
2017-12-12T00:52:20.257Z,23.10
2017-12-12T00:54:48.766Z,23.40
2017-12-12T00:57:18.043Z,21.73
2017-12-12T00:59:46.434Z,22.30
2017-12-12T01:02:14.964Z,20.50
2017-12-12T01:04:43.434Z,22.10
2017-12-12T01:07:11.811Z,21.57
2017-12-12T01:09:40.165Z,19.07
2017-12-12T01:12:09.307Z,20.57
2017-12-12T01:14:37.878Z,22.70
2017-12-12T01:17:06.397Z,21.27
2017-12-12T01:19:34.814Z,17.87
2017-12-12T01:22:04.057Z,20.03
2017-12-12T01:24:32.436Z,19.03
2017-12-12T01:27:00.814Z,18.10
2017-12-12T01:29:29.278Z,18.43
2017-12-12T01:31:57.656Z,19.30
2017-12-12T01:34:26.023Z,19.47
2017-12-12T01:36:54.444Z,17.93
2017-12-12T01:39:22.807Z,19.50
2017-12-12T01:41:50.580Z,19.47
2017-12-12T01:44:18.336Z,18.27
2017-12-12T01:46:46.087Z,17.50
2017-12-12T01:49:14.494Z,16.87
2017-12-12T01:51:42.985Z,17.40
2017-12-12T01:54:11.920Z,17.23
2017-12-12T01:56:40.520Z,18.57
2017-12-12T01:59:08.264Z,16.40
2017-12-12T02:01:36.370Z,14.97
2017-12-12T02:04:04.447Z,17.17
2017-12-12T02:06:32.137Z,13.70
2017-12-12T02:09:00.612Z,13.50
2017-12-12T02:11:29.134Z,15.27
2017-12-12T02:13:57.170Z,14.17
2017-12-12T02:16:24.912Z,13.67
2017-12-12T02:18:52.632Z,13.67
2017-12-12T02:21:20.347Z,13.00
2017-12-12T02:23:48.834Z,12.83
2017-12-12T02:26:17.315Z,11.60
2017-12-12T02:28:45.798Z,12.77
2017-12-12T02:31:14.415Z,13.40
2017-12-12T02:33:42.127Z,12.33
2017-12-12T02:36:10.620Z,13.60
2017-12-12T02:38:38.377Z,12.00
2017-12-12T02:41:06.967Z,11.70
2017-12-12T02:43:35.434Z,13.10
2017-12-12T02:46:05.119Z,11.77
2017-12-12T02:48:32.815Z,11.83
2017-12-12T02:51:01.496Z,11.80
2017-12-12T02:53:29.960Z,11.33
2017-12-12T02:55:57.660Z,11.30
2017-12-12T02:58:25.399Z,11.83
2017-12-12T03:00:53.910Z,11.97
2017-12-12T03:03:25.746Z,10.60
2017-12-12T03:05:54.208Z,10.57
2017-12-12T03:08:23.034Z,11.20
2017-12-12T03:10:50.717Z,11.13
2017-12-12T03:13:18.505Z,10.77
2017-12-12T03:15:46.198Z,11.00
2017-12-12T03:18:14.678Z,10.10
2017-12-12T03:20:43.184Z,12.10
2017-12-12T03:23:10.962Z,10.10
2017-12-12T03:25:39.365Z,10.27
2017-12-12T03:28:07.383Z,11.33
2017-12-12T03:30:35.103Z,10.70
2017-12-12T03:33:03.135Z,11.93
2017-12-12T03:35:31.171Z,11.60
2017-12-12T03:37:59.999Z,12.10
2017-12-12T03:40:28.355Z,11.40
2017-12-12T03:42:56.151Z,11.70
2017-12-12T03:45:24.223Z,11.50
2017-12-12T03:47:52.094Z,13.63
2017-12-12T03:50:20.151Z,12.30
2017-12-12T03:52:48.230Z,12.20
2017-12-12T03:55:16.797Z,13.20
2017-12-12T03:57:44.493Z,13.27
2017-12-12T04:00:12.200Z,11.70
2017-12-12T04:02:40.327Z,13.30
2017-12-12T04:05:08.044Z,14.00
2017-12-12T04:07:36.409Z,13.07
2017-12-12T04:10:04.401Z,13.87
2017-12-12T04:12:32.438Z,13.43
2017-12-12T04:15:01.587Z,12.40
2017-12-12T04:17:30.045Z,12.73
2017-12-12T04:19:58.243Z,12.50
2017-12-12T04:22:26.704Z,12.00
2017-12-12T04:24:54.451Z,12.13
2017-12-12T04:27:22.495Z,12.93
2017-12-12T04:29:51.666Z,12.03
2017-12-12T04:32:19.549Z,12.13
2017-12-12T04:34:47.616Z,13.10
2017-12-12T04:37:15.310Z,12.10
2017-12-12T04:39:43.349Z,12.07
2017-12-12T04:42:12.892Z,13.10
2017-12-12T04:44:41.020Z,11.87
2017-12-12T04:47:09.097Z,12.60
2017-12-12T04:49:36.789Z,12.10
2017-12-12T04:52:04.934Z,12.37
2017-12-12T04:54:32.795Z,14.13
2017-12-12T04:57:01.692Z,12.20
2017-12-12T04:59:29.741Z,12.10
2017-12-12T05:01:57.796Z,11.77
2017-12-12T05:04:26.251Z,11.80
2017-12-12T05:06:54.690Z,11.80
2017-12-12T05:09:23.381Z,11.83
2017-12-12T05:11:51.874Z,11.17
2017-12-12T05:14:20.003Z,12.33
2017-12-12T05:16:47.703Z,11.10
2017-12-12T05:19:15.424Z,11.70
2017-12-12T05:21:43.503Z,11.43
2017-12-12T05:24:12.316Z,12.40
2017-12-12T05:26:40.801Z,11.97
2017-12-12T05:29:09.369Z,13.00
2017-12-12T05:31:38.212Z,13.00
2017-12-12T05:34:05.964Z,12.50
2017-12-12T05:36:34.080Z,13.57
2017-12-12T05:39:02.173Z,12.90
2017-12-12T05:41:30.698Z,13.10
2017-12-12T05:43:58.419Z,13.00
2017-12-12T05:46:27.247Z,14.60
2017-12-12T05:48:55.000Z,13.53
2017-12-12T05:51:23.048Z,13.00
2017-12-12T05:53:52.447Z,13.03
2017-12-12T05:56:21.109Z,13.87
2017-12-12T05:58:48.848Z,12.67
2017-12-12T06:01:18.233Z,13.67
2017-12-12T06:03:46.920Z,13.77
2017-12-12T06:06:15.939Z,14.03
2017-12-12T06:08:43.646Z,13.70
2017-12-12T06:11:11.374Z,13.50
2017-12-12T06:13:39.119Z,14.30
2017-12-12T06:16:06.831Z,13.70
2017-12-12T06:18:34.858Z,14.40
2017-12-12T06:21:02.918Z,15.03
2017-12-12T06:23:31.105Z,13.93
2017-12-12T06:25:59.211Z,14.60
2017-12-12T06:28:28.082Z,14.53
2017-12-12T06:30:56.620Z,14.43
2017-12-12T06:33:24.377Z,14.90
2017-12-12T06:35:52.109Z,14.90
2017-12-12T06:38:21.310Z,13.93
2017-12-12T06:40:49.357Z,13.73
2017-12-12T06:43:18.032Z,14.27
2017-12-12T06:45:46.539Z,14.07
2017-12-12T06:48:15.012Z,13.20
2017-12-12T06:50:44.208Z,12.67
2017-12-12T06:53:12.280Z,13.00
2017-12-12T06:55:40.771Z,12.90
2017-12-12T06:58:09.443Z,12.90
2017-12-12T07:00:37.939Z,13.67
2017-12-12T07:03:05.990Z,13.97
2017-12-12T07:05:34.922Z,13.10
2017-12-12T07:08:02.683Z,14.50
2017-12-12T07:10:30.853Z,13.73
2017-12-12T07:12:58.727Z,13.13
2017-12-12T07:15:27.002Z,14.23
2017-12-12T07:17:54.966Z,14.50
2017-12-12T07:20:22.687Z,12.43
2017-12-12T07:22:51.849Z,12.23
2017-12-12T07:25:20.216Z,13.87
2017-12-12T07:27:48.685Z,12.47
2017-12-12T07:30:17.080Z,13.27
2017-12-12T07:32:45.464Z,13.73
2017-12-12T07:35:13.961Z,12.73
2017-12-12T07:37:42.311Z,12.90
2017-12-12T07:40:10.699Z,13.73
2017-12-12T07:42:39.085Z,13.87
2017-12-12T07:45:07.619Z,13.60
2017-12-12T07:47:36.054Z,13.13
2017-12-12T07:50:04.095Z,13.10
2017-12-12T07:52:32.160Z,13.03
2017-12-12T07:55:00.852Z,13.40
2017-12-12T07:57:29.232Z,12.77
2017-12-12T07:59:58.267Z,13.10
2017-12-12T08:02:26.639Z,13.87
2017-12-12T08:04:55.024Z,13.70
2017-12-12T08:07:23.054Z,12.73
2017-12-12T08:09:51.108Z,12.60
2017-12-12T08:12:19.465Z,14.03
2017-12-12T08:14:48.592Z,12.90
2017-12-12T08:17:17.119Z,12.77
2017-12-12T08:19:45.477Z,14.27
2017-12-12T08:22:13.835Z,14.77
2017-12-12T08:24:41.862Z,14.23
2017-12-12T08:27:10.238Z,14.50
2017-12-12T08:29:38.748Z,14.87
2017-12-12T08:32:08.074Z,14.63
2017-12-12T08:34:36.505Z,13.83
2017-12-12T08:37:04.891Z,16.53
2017-12-12T08:39:34.377Z,14.27
2017-12-12T08:42:02.728Z,14.50
2017-12-12T08:44:30.775Z,15.10
2017-12-12T08:46:59.180Z,15.40
2017-12-12T08:49:27.541Z,13.50
2017-12-12T08:51:56.373Z,14.57
2017-12-12T08:54:24.731Z,12.53
2017-12-12T08:56:53.101Z,13.50
2017-12-12T08:59:21.457Z,13.07
2017-12-12T09:01:50.824Z,13.90
2017-12-12T09:04:19.168Z,13.23
2017-12-12T09:06:48.124Z,13.03
2017-12-12T09:09:16.492Z,13.57
2017-12-12T09:11:44.875Z,12.30
2017-12-12T09:14:13.238Z,11.50
2017-12-12T09:16:41.888Z,11.47
2017-12-12T09:19:11.210Z,11.53
2017-12-12T09:21:39.616Z,13.70
2017-12-12T09:24:07.650Z,13.03
2017-12-12T09:26:36.038Z,12.47
2017-12-12T09:29:04.400Z,13.67
2017-12-12T09:31:32.801Z,13.43
2017-12-12T09:34:01.172Z,13.30
2017-12-12T09:36:29.224Z,14.60
2017-12-12T09:38:57.641Z,13.93
2017-12-12T09:41:25.829Z,14.20
2017-12-12T09:43:53.963Z,13.47
2017-12-12T09:46:25.308Z,12.87
2017-12-12T09:48:53.684Z,13.47
2017-12-12T09:51:22.028Z,13.27
2017-12-12T09:53:51.183Z,13.63
2017-12-12T09:56:19.545Z,14.70
2017-12-12T09:58:47.907Z,15.27
2017-12-12T10:01:15.965Z,15.60
2017-12-12T10:03:44.340Z,15.30
2017-12-12T10:06:13.510Z,16.57
2017-12-12T10:08:41.874Z,16.13
2017-12-12T10:11:10.248Z,17.10
2017-12-12T10:13:38.775Z,16.97
2017-12-12T10:16:07.920Z,16.83
2017-12-12T10:18:36.270Z,17.80
2017-12-12T10:21:04.451Z,17.03
2017-12-12T10:23:32.827Z,18.40
2017-12-12T10:26:01.345Z,17.27
2017-12-12T10:28:29.697Z,18.30
2017-12-12T10:30:58.052Z,16.27
2017-12-12T10:33:26.419Z,16.80
2017-12-12T10:35:54.776Z,17.20
2017-12-12T10:38:23.252Z,18.40
2017-12-12T10:40:51.812Z,17.30
2017-12-12T10:43:19.519Z,15.80
2017-12-12T10:45:47.416Z,15.50
2017-12-12T10:48:15.346Z,16.07
2017-12-12T10:50:44.300Z,16.67
2017-12-12T10:53:12.341Z,16.23
2017-12-12T10:55:40.412Z,16.70
2017-12-12T10:58:08.268Z,15.63
2017-12-12T11:00:36.726Z,16.60
2017-12-12T11:03:05.084Z,17.70
2017-12-12T11:05:34.232Z,17.23
2017-12-12T11:08:02.590Z,15.20
2017-12-12T11:10:30.974Z,15.93
2017-12-12T11:12:59.804Z,15.63
2017-12-12T11:15:28.177Z,14.50
2017-12-12T11:17:57.721Z,13.33
2017-12-12T11:20:26.900Z,12.70
2017-12-12T11:22:56.093Z,13.50
2017-12-12T11:25:23.919Z,14.27
2017-12-12T11:27:52.091Z,13.60
2017-12-12T11:30:20.632Z,12.53
2017-12-12T11:32:49.548Z,13.23
2017-12-12T11:35:17.293Z,12.23
2017-12-12T11:37:45.828Z,12.43
2017-12-12T11:40:14.298Z,12.97
2017-12-12T11:42:42.759Z,12.73
2017-12-12T11:45:11.309Z,11.43
2017-12-12T11:47:39.756Z,12.70
2017-12-12T11:50:07.467Z,13.07
2017-12-12T11:52:35.549Z,13.67
2017-12-12T11:55:04.082Z,13.33
2017-12-12T11:57:31.778Z,12.50
2017-12-12T11:59:59.880Z,12.40
2017-12-12T12:02:27.623Z,10.70
2017-12-12T12:04:55.864Z,11.33
2017-12-12T12:07:24.349Z,11.57
2017-12-12T12:09:53.223Z,11.37
2017-12-12T12:12:21.686Z,12.20
2017-12-12T12:14:50.049Z,11.50
2017-12-12T12:17:18.487Z,12.40
2017-12-12T12:19:47.092Z,12.20
2017-12-12T12:22:15.261Z,11.77
2017-12-12T12:24:43.107Z,11.23
2017-12-12T12:27:11.707Z,11.33
2017-12-12T12:29:39.996Z,11.37
2017-12-12T12:32:07.849Z,11.03
2017-12-12T12:34:36.042Z,11.10
2017-12-12T12:37:04.101Z,10.10
2017-12-12T12:39:32.944Z,10.83
2017-12-12T12:42:00.748Z,12.47
2017-12-12T12:44:29.136Z,9.50
2017-12-12T12:46:56.914Z,10.07
2017-12-12T12:49:25.292Z,10.47
2017-12-12T12:51:53.507Z,9.93
2017-12-12T12:54:22.265Z,9.63
2017-12-12T12:56:49.982Z,8.70
2017-12-12T12:59:18.365Z,8.10
2017-12-12T13:01:46.748Z,8.17
2017-12-12T13:04:15.132Z,7.50
2017-12-12T13:06:43.504Z,7.07
2017-12-12T13:09:12.269Z,8.43
2017-12-12T13:11:41.557Z,6.93
2017-12-12T13:14:10.726Z,7.27
2017-12-12T13:16:39.014Z,6.50
2017-12-12T13:19:07.376Z,6.90
2017-12-12T13:21:35.961Z,7.07
2017-12-12T13:24:04.401Z,7.10
2017-12-12T13:26:32.748Z,7.53
2017-12-12T13:29:02.028Z,7.10
2017-12-12T13:31:30.430Z,7.50
2017-12-12T13:33:59.560Z,7.47
2017-12-12T13:36:27.273Z,7.23
2017-12-12T13:38:56.409Z,6.73
2017-12-12T13:41:24.787Z,7.00
2017-12-12T13:43:53.183Z,6.67
2017-12-12T13:46:21.851Z,7.37
2017-12-12T13:48:50.384Z,7.43
2017-12-12T13:51:18.744Z,6.93
2017-12-12T13:53:47.639Z,7.57
2017-12-12T13:56:16.135Z,7.53
2017-12-12T13:58:45.570Z,8.00
2017-12-12T14:01:13.917Z,7.60
2017-12-12T14:03:43.215Z,7.50
2017-12-12T14:06:11.816Z,7.60
2017-12-12T14:08:40.953Z,7.80
2017-12-12T14:11:09.461Z,7.33
2017-12-12T14:13:38.079Z,7.20
2017-12-12T14:16:06.429Z,7.53
2017-12-12T14:18:34.936Z,7.70
2017-12-12T14:21:03.438Z,7.27
2017-12-12T14:23:31.843Z,8.30
2017-12-12T14:26:00.320Z,8.07
2017-12-12T14:28:28.677Z,7.77
2017-12-12T14:30:57.232Z,7.83
2017-12-12T14:33:25.881Z,7.53
2017-12-12T14:35:54.724Z,7.37
2017-12-12T14:38:23.352Z,7.13
2017-12-12T14:40:51.708Z,6.40
2017-12-12T14:43:19.736Z,7.07
2017-12-12T14:45:48.337Z,6.73
2017-12-12T14:48:16.755Z,7.27
2017-12-12T14:50:45.278Z,7.43
2017-12-12T14:53:13.726Z,8.00
2017-12-12T14:55:42.250Z,7.93
2017-12-12T14:58:10.661Z,7.63
2017-12-12T15:00:39.205Z,8.30
2017-12-12T15:03:07.704Z,7.47
2017-12-12T15:05:36.075Z,7.63
2017-12-12T15:08:04.582Z,7.17
2017-12-12T15:10:33.166Z,7.50
2017-12-12T15:13:01.562Z,7.40
2017-12-12T15:15:29.928Z,7.60
2017-12-12T15:17:58.434Z,7.90
2017-12-12T15:20:26.802Z,7.50
2017-12-12T15:22:56.234Z,8.03
2017-12-12T15:25:24.637Z,8.63
2017-12-12T15:27:52.983Z,9.03
2017-12-12T15:30:22.214Z,8.80
2017-12-12T15:32:50.583Z,9.27
2017-12-12T15:35:18.626Z,8.40
2017-12-12T15:37:47.871Z,8.53
2017-12-12T15:40:16.232Z,8.50
2017-12-12T15:42:44.599Z,9.30
2017-12-12T15:45:14.644Z,8.70
2017-12-12T15:47:43.183Z,9.20
2017-12-12T15:50:12.319Z,8.60
2017-12-12T15:52:41.095Z,8.60
2017-12-12T15:55:09.754Z,8.50
2017-12-12T15:57:39.036Z,8.50
2017-12-12T16:00:07.474Z,8.13
2017-12-12T16:02:35.923Z,7.90
2017-12-12T16:05:04.423Z,7.83
2017-12-12T16:07:32.954Z,8.27
2017-12-12T16:10:01.353Z,8.20
2017-12-12T16:12:30.660Z,8.50
2017-12-12T16:14:59.847Z,8.50
2017-12-12T16:17:29.010Z,8.73
2017-12-12T16:19:57.488Z,8.53
2017-12-12T16:22:25.841Z,9.10
2017-12-12T16:24:54.219Z,9.23
2017-12-12T16:27:22.730Z,11.23
2017-12-12T16:29:51.107Z,12.10
2017-12-12T16:32:19.122Z,12.43
2017-12-12T16:34:48.238Z,12.03
2017-12-12T16:37:16.295Z,13.67
2017-12-12T16:39:44.557Z,12.40
2017-12-12T16:42:12.614Z,13.63
2017-12-12T16:44:41.916Z,14.00
2017-12-12T16:47:11.111Z,13.47
2017-12-12T16:49:41.243Z,13.30
2017-12-12T16:52:09.851Z,14.70
2017-12-12T16:54:38.224Z,14.53
2017-12-12T16:57:06.266Z,13.63
2017-12-12T16:59:34.626Z,14.50
2017-12-12T17:02:03.042Z,14.77
2017-12-12T17:04:31.528Z,16.40
2017-12-12T17:07:00.018Z,15.50
2017-12-12T17:09:28.485Z,16.57
2017-12-12T17:11:56.893Z,17.30
2017-12-12T17:14:25.290Z,17.13
2017-12-12T17:16:53.681Z,18.53
2017-12-12T17:19:22.825Z,20.53
2017-12-12T17:21:51.205Z,19.60
2017-12-12T17:24:19.763Z,19.67
2017-12-12T17:26:48.310Z,21.03
2017-12-12T17:29:16.692Z,21.37
2017-12-12T17:31:45.052Z,23.20
2017-12-12T17:34:13.420Z,23.67
2017-12-12T17:36:42.034Z,23.67
2017-12-12T17:39:10.405Z,24.57
2017-12-12T17:41:38.784Z,23.90
2017-12-12T17:44:08.137Z,22.70
2017-12-12T17:46:36.509Z,24.23
2017-12-12T17:49:04.862Z,25.13
2017-12-12T17:51:34.015Z,23.17
2017-12-12T17:54:02.518Z,23.83
2017-12-12T17:56:31.047Z,24.93
2017-12-12T17:58:59.462Z,23.57
2017-12-12T18:01:28.727Z,24.17
2017-12-12T18:03:57.067Z,24.20
2017-12-12T18:06:26.355Z,24.23
2017-12-12T18:08:55.601Z,24.43
2017-12-12T18:11:23.995Z,22.57
2017-12-12T18:13:52.429Z,24.13
2017-12-12T18:16:24.624Z,23.43
2017-12-12T18:18:53.773Z,24.10
2017-12-12T18:21:23.111Z,25.17
2017-12-12T18:23:51.527Z,23.60
2017-12-12T18:26:22.497Z,24.53
2017-12-12T18:28:52.146Z,22.30
2017-12-12T18:31:20.551Z,23.03
2017-12-12T18:33:48.912Z,22.00
2017-12-12T18:36:17.278Z,23.90
2017-12-12T18:38:45.708Z,22.80
2017-12-12T18:41:14.925Z,23.33
2017-12-12T18:43:43.381Z,21.30
2017-12-12T18:46:12.560Z,22.87
2017-12-12T18:48:41.110Z,21.40
2017-12-12T18:51:09.812Z,20.80
2017-12-12T18:53:38.353Z,20.70
2017-12-12T18:56:06.799Z,21.53
2017-12-12T18:58:36.772Z,19.23
2017-12-12T19:01:05.393Z,20.20
2017-12-12T19:03:35.059Z,20.87
2017-12-12T19:06:03.744Z,20.07
2017-12-12T19:08:32.660Z,20.50
2017-12-12T19:11:01.535Z,19.77
2017-12-12T19:13:30.656Z,20.40
2017-12-12T19:15:59.955Z,21.10
2017-12-12T19:18:28.909Z,19.20
2017-12-12T19:20:57.596Z,20.60
2017-12-12T19:23:26.279Z,20.13
2017-12-12T19:25:55.126Z,19.97
2017-12-12T19:28:23.854Z,20.60
2017-12-12T19:30:52.174Z,19.27
2017-12-12T19:33:21.743Z,19.83
2017-12-12T19:35:50.934Z,19.13
2017-12-12T19:38:19.587Z,18.30
2017-12-12T19:40:48.229Z,19.20
2017-12-12T19:43:16.790Z,20.30
2017-12-12T19:45:45.163Z,18.23
2017-12-12T19:48:14.469Z,17.17
2017-12-12T19:50:43.000Z,17.30
2017-12-12T19:53:12.373Z,16.93
2017-12-12T19:55:40.722Z,17.57
2017-12-12T19:58:08.798Z,17.30
2017-12-12T20:00:37.581Z,18.43
2017-12-12T20:03:06.192Z,18.57
2017-12-12T20:05:34.878Z,17.67
2017-12-12T20:08:03.568Z,16.30
2017-12-12T20:10:32.152Z,17.43
2017-12-12T20:13:00.689Z,18.03
2017-12-12T20:15:29.297Z,16.83
2017-12-12T20:17:57.804Z,17.57
2017-12-12T20:20:27.099Z,16.67
2017-12-12T20:22:55.706Z,17.00
2017-12-12T20:25:24.460Z,19.60
2017-12-12T20:27:53.971Z,18.60
2017-12-12T20:30:22.669Z,20.10
2017-12-12T20:32:51.374Z,18.87
2017-12-12T20:35:20.096Z,18.47
2017-12-12T20:37:48.614Z,19.00
2017-12-12T20:40:18.033Z,15.90
2017-12-12T20:42:46.458Z,15.83
2017-12-12T20:45:15.058Z,17.10
2017-12-12T20:47:44.580Z,18.60
2017-12-12T20:50:13.987Z,19.10
2017-12-12T20:52:43.376Z,17.37
2017-12-12T20:55:12.133Z,18.60
2017-12-12T20:57:41.134Z,17.40
2017-12-12T21:00:09.256Z,18.73
2017-12-12T21:02:37.983Z,16.93
2017-12-12T21:05:06.872Z,17.60
2017-12-12T21:07:36.503Z,19.70
2017-12-12T21:10:04.748Z,17.93
2017-12-12T21:12:33.385Z,18.50
2017-12-12T21:15:02.627Z,19.90
2017-12-12T21:17:31.057Z,19.37
2017-12-12T21:19:59.491Z,19.73
2017-12-12T21:22:27.911Z,19.70
2017-12-12T21:24:56.364Z,21.27
2017-12-12T21:27:24.758Z,19.50
2017-12-12T21:29:53.146Z,21.57
2017-12-12T21:32:21.587Z,20.10
2017-12-12T21:34:50.036Z,21.27
2017-12-12T21:37:19.246Z,20.10
2017-12-12T21:39:47.779Z,20.07
2017-12-12T21:42:16.308Z,19.20
2017-12-12T21:44:44.845Z,18.53
2017-12-12T21:47:13.261Z,18.77
2017-12-12T21:49:42.679Z,18.67
2017-12-12T21:52:11.845Z,18.10
2017-12-12T21:54:41.186Z,17.30
2017-12-12T21:57:09.265Z,18.03
2017-12-12T21:59:37.665Z,16.90
2017-12-12T22:02:06.082Z,15.40
2017-12-12T22:04:34.469Z,15.90
2017-12-12T22:07:02.883Z,15.53
2017-12-12T22:09:31.279Z,15.67
2017-12-12T22:11:59.657Z,13.13
2017-12-12T22:14:28.067Z,15.20
2017-12-12T22:16:57.344Z,13.30
2017-12-12T22:19:25.816Z,12.80
2017-12-12T22:21:54.190Z,12.07
2017-12-12T22:24:22.582Z,11.17
2017-12-12T22:26:50.976Z,12.03
2017-12-12T22:29:19.542Z,12.20
2017-12-12T22:31:48.031Z,12.33
2017-12-12T22:34:16.436Z,10.80
2017-12-12T22:36:44.803Z,11.03
2017-12-12T22:39:14.002Z,11.63
2017-12-12T22:41:43.234Z,10.70
2017-12-12T22:44:11.653Z,10.27
2017-12-12T22:46:40.055Z,11.17
2017-12-12T22:49:09.208Z,10.00
2017-12-12T22:51:37.734Z,10.70
2017-12-12T22:54:06.871Z,10.17
2017-12-12T22:56:35.508Z,10.33
2017-12-12T22:59:04.910Z,9.93
2017-12-12T23:01:34.064Z,10.03
2017-12-12T23:04:02.516Z,9.70
2017-12-12T23:06:30.873Z,9.60
2017-12-12T23:09:00.053Z,9.83
2017-12-12T23:11:29.194Z,10.03
2017-12-12T23:13:57.830Z,9.60
2017-12-12T23:16:26.224Z,10.00
2017-12-12T23:18:55.435Z,8.53
2017-12-12T23:21:24.563Z,9.30
2017-12-12T23:23:52.948Z,8.83
2017-12-12T23:26:21.463Z,8.80
2017-12-12T23:28:50.638Z,8.10
2017-12-12T23:31:19.521Z,8.87
2017-12-12T23:33:47.945Z,9.03
2017-12-12T23:36:16.328Z,9.50
2017-12-12T23:38:44.685Z,9.83
2017-12-12T23:41:13.819Z,8.90
2017-12-12T23:43:42.357Z,8.87
2017-12-12T23:46:11.517Z,8.80
2017-12-12T23:48:39.983Z,8.23
2017-12-12T23:51:08.356Z,8.50
2017-12-12T23:53:36.736Z,9.07
2017-12-12T23:56:05.118Z,8.60
2017-12-12T23:58:33.476Z,9.30
